Time;durP1;ratioP1;P1;durP2;ratioP2;P2;SDS_P1;SDS_P2;PMS_P1;PMS_P2;Temp;Humidity;BMP_temperature;BMP_pressure;BME280_temperature;BME280_humidity;BME280_pressure;Samples;Min_cycle;Max_cycle;Signal;HPM_P1;HPM_P2
2022/02/04 00:04:31;;;;;;;4.00;3.60;;;19.80;99.90;;;;;;4242377;28;20213;-80
2022/02/04 00:06:57;;;;;;;4.45;3.80;;;19.80;99.90;;;;;;4242558;28;20781;-80
2022/02/04 00:09:19;;;;;;;4.75;4.20;;;19.80;99.90;;;;;;4241087;28;20237;-80
2022/02/04 00:20:50;;;;;;;5.97;4.00;;;19.70;99.90;;;;;;4244648;28;20205;-80
2022/02/04 00:23:07;;;;;;;4.82;4.30;;;19.70;99.90;;;;;;4242494;28;20213;-80
2022/02/04 00:25:18;;;;;;;4.53;4.13;;;19.70;99.90;;;;;;4243682;28;20262;-80
2022/02/04 00:27:24;;;;;;;4.72;3.90;;;19.70;99.90;;;;;;4244157;28;20608;-80
2022/02/04 00:29:32;;;;;;;4.75;4.10;;;19.70;99.90;;;;;;4243918;28;20294;-80
2022/02/04 00:31:39;;;;;;;4.38;3.95;;;19.70;99.90;;;;;;4244430;28;20360;-80
2022/02/04 00:33:45;;;;;;;5.00;4.20;;;19.70;99.90;;;;;;4243391;28;20228;-80
2022/02/04 00:35:55;;;;;;;6.03;4.38;;;19.70;99.90;;;;;;4242859;28;20269;-80
2022/02/04 00:38:02;;;;;;;6.00;4.60;;;19.70;99.90;;;;;;4244096;28;20619;-80
2022/02/04 00:40:13;;;;;;;4.78;4.22;;;19.70;99.90;;;;;;4243721;28;20225;-80
2022/02/04 00:42:15;;;;;;;5.13;4.32;;;19.70;99.90;;;;;;4243915;28;20270;-80
2022/02/04 00:44:22;;;;;;;4.07;3.67;;;19.70;99.90;;;;;;4225268;28;20238;-80
2022/02/04 00:46:28;;;;;;;4.55;4.15;;;19.70;99.90;;;;;;4225110;28;20658;-80
2022/02/04 00:48:39;;;;;;;4.65;4.22;;;19.70;99.90;;;;;;4221229;28;20926;-80
2022/02/04 00:50:55;;;;;;;4.65;3.90;;;19.70;99.90;;;;;;4227528;28;20249;-80
2022/02/04 00:53:12;;;;;;;5.60;4.30;;;19.60;99.90;;;;;;4230242;27;20221;-80
2022/02/04 00:55:23;;;;;;;4.57;4.07;;;19.70;99.90;;;;;;4221755;28;20748;-80
2022/02/04 00:57:44;;;;;;;4.55;3.85;;;19.70;99.90;;;;;;4228298;27;20217;-80
2022/02/04 01:27:46;;;;;;;4.53;3.63;;;19.50;99.90;;;;;;4228870;28;20670;-80
2022/02/04 01:29:58;;;;;;;4.80;3.67;;;19.50;99.90;;;;;;4230396;27;20237;-80
2022/02/04 01:32:00;;;;;;;4.35;3.95;;;19.50;99.90;;;;;;4226996;27;20275;-80
2022/02/04 01:34:03;;;;;;;4.20;3.80;;;19.50;99.90;;;;;;4228543;27;20221;-80
2022/02/04 01:36:07;;;;;;;5.15;3.80;;;19.50;99.90;;;;;;4230915;27;20221;-80
2022/02/04 01:38:09;;;;;;;4.57;3.53;;;19.50;99.90;;;;;;4230280;27;20259;-80
2022/02/04 01:40:13;;;;;;;4.25;3.58;;;19.50;99.90;;;;;;4220898;28;20267;-79
2022/02/04 01:42:15;;;;;;;4.10;3.70;;;19.50;99.90;;;;;;4230162;27;20275;-80
2022/02/04 01:44:24;;;;;;;4.20;3.80;;;19.50;99.90;;;;;;4229476;27;20233;-80
2022/02/04 01:46:27;;;;;;;3.72;3.42;;;19.50;99.90;;;;;;4229928;27;20221;-80
2022/02/04 01:48:31;;;;;;;4.97;3.90;;;19.50;99.90;;;;;;4227898;27;20220;-79
2022/02/04 01:50:33;;;;;;;4.57;4.00;;;19.50;99.90;;;;;;4228938;27;20637;-80
2022/02/04 01:52:37;;;;;;;5.28;3.88;;;19.50;99.90;;;;;;4229255;27;20611;-80
2022/02/04 01:54:40;;;;;;;5.15;3.92;;;19.50;99.90;;;;;;4228340;28;20213;-80
2022/02/04 01:56:42;;;;;;;4.35;3.72;;;19.50;99.90;;;;;;4220683;28;20276;-80
2022/02/04 01:58:45;;;;;;;3.90;3.50;;;19.50;99.90;;;;;;4229262;27;20244;-80
2022/02/04 02:00:47;;;;;;;4.13;3.30;;;19.50;99.90;;;;;;4229015;27;20655;-80
2022/02/04 02:02:51;;;;;;;4.15;3.63;;;19.40;99.90;;;;;;4232467;27;20209;-80
2022/02/04 02:04:53;;;;;;;4.22;3.83;;;19.50;99.90;;;;;;4229988;27;20631;-80
2022/02/04 02:06:57;;;;;;;3.63;3.30;;;19.40;99.90;;;;;;4228486;28;20251;-80
2022/02/04 02:09:01;;;;;;;4.32;3.30;;;19.40;99.90;;;;;;4230497;27;20898;-80
2022/02/04 02:11:03;;;;;;;3.53;3.22;;;19.50;99.90;;;;;;4229712;27;20237;-80
2022/02/04 02:13:16;;;;;;;4.85;3.50;;;19.50;99.90;;;;;;4228574;27;20251;-80
2022/02/04 02:15:25;;;;;;;4.32;3.25;;;19.50;99.90;;;;;;4220971;28;20931;-80
2022/02/04 02:36:43;;;;;;;3.58;3.28;;;19.40;99.90;;;;;;4219778;27;20334;-80
2022/02/04 02:39:18;;;;;;;3.17;2.78;;;19.40;99.90;;;;;;4225411;27;20298;-80
2022/02/04 02:44:10;;;;;;;4.13;3.45;;;19.40;99.90;;;;;;4230748;27;20205;-80
2022/02/04 02:46:37;;;;;;;3.97;3.15;;;19.40;99.90;;;;;;4227041;28;20238;-80
2022/02/04 02:53:44;;;;;;;2.70;2.50;;;19.30;99.90;;;;;;4220943;27;20217;-80
2022/02/04 02:56:03;;;;;;;3.17;2.88;;;19.30;99.90;;;;;;4224481;27;20235;-72
2022/02/04 02:58:10;;;;;;;4.03;3.70;;;19.30;99.90;;;;;;4223221;27;20222;-72
2022/02/04 03:00:25;;;;;;;3.47;2.90;;;19.30;99.90;;;;;;4225355;28;20259;-71
2022/02/04 03:02:27;;;;;;;4.60;3.20;;;19.30;99.90;;;;;;4224531;28;20239;-72
2022/02/04 03:04:30;;;;;;;3.60;2.90;;;19.30;99.90;;;;;;4218590;28;20267;-71
2022/02/04 03:06:32;;;;;;;4.93;3.08;;;19.20;99.90;;;;;;4225656;28;20719;-71
2022/02/04 03:08:34;;;;;;;3.30;2.60;;;19.30;99.90;;;;;;4216128;28;21643;-72
2022/02/04 03:10:37;;;;;;;3.33;2.40;;;19.30;99.90;;;;;;4217363;28;20245;-72
2022/02/04 03:12:43;;;;;;;3.13;2.83;;;19.30;99.90;;;;;;4216381;28;20218;-72
2022/02/04 03:14:46;;;;;;;3.08;2.78;;;19.30;99.90;;;;;;4217615;28;20222;-72
2022/02/04 03:16:48;;;;;;;3.13;2.72;;;19.30;99.90;;;;;;4218040;28;20260;-72
2022/02/04 03:18:52;;;;;;;3.90;2.90;;;19.20;99.90;;;;;;4221963;28;21519;-71
2022/02/04 03:21:00;;;;;;;3.72;3.10;;;19.30;99.90;;;;;;4225874;28;20217;-72
2022/02/04 03:23:03;;;;;;;3.40;2.75;;;19.30;99.90;;;;;;4228054;27;20267;-72
2022/02/04 03:25:09;;;;;;;2.95;2.60;;;19.20;99.90;;;;;;4225334;28;20270;-72
2022/02/04 03:27:13;;;;;;;2.80;2.45;;;19.30;99.90;;;;;;4223374;28;20259;-72
2022/02/04 03:29:24;;;;;;;3.78;2.78;;;19.30;99.90;;;;;;4225456;28;20221;-71
2022/02/04 03:31:31;;;;;;;3.33;3.00;;;19.20;99.90;;;;;;4225372;28;20241;-72
2022/02/04 03:33:35;;;;;;;3.10;2.80;;;19.30;99.90;;;;;;4225855;28;20306;-72
2022/02/04 03:35:37;;;;;;;2.90;2.40;;;19.30;99.90;;;;;;4225938;28;20573;-72
2022/02/04 03:37:40;;;;;;;3.53;2.97;;;19.20;99.90;;;;;;4225867;28;20673;-72
2022/02/04 03:39:42;;;;;;;2.63;2.30;;;19.20;99.90;;;;;;4225576;28;20225;-72
2022/02/04 03:41:44;;;;;;;2.45;2.25;;;19.20;99.90;;;;;;4225559;28;20565;-72
2022/02/04 03:43:47;;;;;;;2.67;2.42;;;19.20;99.90;;;;;;4217880;28;20221;-72
2022/02/04 03:45:50;;;;;;;2.63;2.35;;;19.20;99.90;;;;;;4224080;28;20266;-72
2022/02/04 03:47:53;;;;;;;3.40;2.67;;;19.20;99.90;;;;;;4224662;28;20271;-71
2022/02/04 03:49:55;;;;;;;2.88;2.53;;;19.20;99.90;;;;;;4226718;28;20266;-72
2022/02/04 03:51:57;;;;;;;2.33;2.13;;;19.20;99.90;;;;;;4227317;28;20310;-81
2022/02/04 03:54:00;;;;;;;2.88;2.53;;;19.10;99.90;;;;;;4228131;28;20217;-80
2022/02/04 03:56:02;;;;;;;2.60;2.40;;;19.20;99.90;;;;;;4228891;28;20362;-80
2022/02/04 03:58:04;;;;;;;2.67;2.42;;;19.20;99.90;;;;;;4226881;28;20278;-81
2022/02/04 04:00:12;;;;;;;4.18;2.75;;;19.20;99.90;;;;;;4230948;28;20225;-80
2022/02/04 04:02:15;;;;;;;2.70;2.35;;;19.20;99.90;;;;;;4226206;28;20221;-80
2022/02/04 04:04:18;;;;;;;2.72;2.40;;;19.20;99.90;;;;;;4225270;28;20695;-80
2022/02/04 04:06:20;;;;;;;3.05;2.50;;;19.20;99.90;;;;;;4226309;28;20217;-80
2022/02/04 04:08:22;;;;;;;3.40;2.40;;;19.10;99.90;;;;;;4227238;28;20283;-80
2022/02/04 04:10:27;;;;;;;2.50;2.20;;;19.20;99.90;;;;;;4229583;28;20226;-80
2022/02/04 04:12:30;;;;;;;2.22;2.00;;;19.10;99.90;;;;;;4227116;28;20267;-80
2022/02/04 04:14:32;;;;;;;3.17;2.00;;;19.10;99.90;;;;;;4227387;28;20270;-80
2022/02/04 04:16:34;;;;;;;2.60;2.20;;;19.10;99.90;;;;;;4227539;28;20617;-80
2022/02/04 04:18:38;;;;;;;2.95;2.40;;;19.10;99.90;;;;;;4227271;28;20225;-80
2022/02/04 04:20:41;;;;;;;3.38;2.60;;;19.10;99.90;;;;;;4226323;28;20268;-80
2022/02/04 04:22:45;;;;;;;2.40;2.20;;;19.10;99.90;;;;;;4227093;28;20225;-80
2022/02/04 04:24:47;;;;;;;2.55;2.33;;;19.10;99.90;;;;;;4223273;28;20230;-80
2022/02/04 04:26:49;;;;;;;2.28;1.77;;;19.10;99.90;;;;;;4221844;28;20225;-80
2022/02/04 04:28:52;;;;;;;2.88;2.10;;;19.10;99.90;;;;;;4229758;28;20221;-80
2022/02/04 04:30:54;;;;;;;3.20;2.33;;;19.10;99.90;;;;;;4230927;27;20669;-80
2022/02/04 04:32:59;;;;;;;2.42;2.13;;;19.10;99.90;;;;;;4229622;28;20226;-81
2022/02/04 04:35:02;;;;;;;1.80;1.70;;;19.10;99.90;;;;;;4231662;27;20226;-80
2022/02/04 04:37:06;;;;;;;2.78;2.20;;;19.10;99.90;;;;;;4229136;28;21484;-72
2022/02/04 04:39:14;;;;;;;3.10;2.03;;;19.10;99.90;;;;;;4228039;27;20273;-71
2022/02/04 04:41:27;;;;;;;2.35;2.00;;;19.10;99.90;;;;;;4228393;27;20298;-72
2022/02/04 04:43:46;;;;;;;2.80;2.10;;;19.10;99.90;;;;;;4228403;27;20267;-72
2022/02/04 05:26:14;;;;;;;2.17;1.83;;;19.00;99.90;;;;;;4228814;28;20210;-80
2022/02/04 05:28:33;;;;;;;2.22;1.70;;;19.00;99.90;;;;;;4228730;27;20226;-79
2022/02/04 05:30:35;;;;;;;2.85;1.80;;;19.00;99.90;;;;;;4228392;28;20255;-80
2022/02/04 05:32:38;;;;;;;2.15;1.80;;;18.90;99.90;;;;;;4227693;28;20253;-80
2022/02/04 05:34:40;;;;;;;2.15;1.88;;;18.90;99.90;;;;;;4228741;28;20272;-80
2022/02/04 05:36:45;;;;;;;2.22;1.58;;;18.90;99.90;;;;;;4222493;28;20674;-80
2022/02/04 05:38:51;;;;;;;2.58;1.80;;;18.90;99.90;;;;;;4223759;27;20225;-80
2022/02/04 05:40:54;;;;;;;2.53;2.00;;;18.90;99.90;;;;;;4231867;27;20213;-72
2022/02/04 05:42:59;;;;;;;2.00;1.80;;;18.90;99.90;;;;;;4231925;27;20274;-71
2022/02/04 05:45:02;;;;;;;2.65;2.08;;;18.90;99.90;;;;;;4230415;27;20233;-71
2022/02/04 05:47:12;;;;;;;3.13;1.52;;;19.00;99.90;;;;;;4230696;27;20279;-72
2022/02/04 05:49:17;;;;;;;2.00;1.80;;;19.00;99.90;;;;;;4229838;27;20568;-72
2022/02/04 05:51:26;;;;;;;1.73;1.63;;;18.90;99.90;;;;;;4230522;27;20670;-72
2022/02/04 05:53:33;;;;;;;1.90;1.70;;;18.90;99.90;;;;;;4227119;27;20210;-72
2022/02/04 05:55:50;;;;;;;2.15;1.65;;;18.80;99.90;;;;;;4227972;27;20210;-72
2022/02/04 05:57:59;;;;;;;3.28;1.60;;;18.60;99.90;;;;;;4232547;27;20221;-71
2022/02/04 06:00:18;;;;;;;2.08;1.60;;;18.60;99.90;;;;;;4233635;27;20234;-72
2022/02/04 06:02:28;;;;;;;2.90;1.75;;;18.60;99.90;;;;;;4232654;27;20221;-72
2022/02/04 06:07:04;;;;;;;2.17;1.92;;;18.80;99.90;;;;;;4227902;27;20270;-72
2022/02/04 06:09:33;;;;;;;1.55;1.30;;;18.90;99.90;;;;;;4233139;27;20263;-80
2022/02/04 06:11:46;;;;;;;1.65;1.38;;;18.90;99.90;;;;;;4234247;27;20230;-80
2022/02/04 06:14:10;;;;;;;1.65;1.52;;;18.90;99.90;;;;;;4232043;27;20633;-80
2022/02/04 06:23:17;;;;;;;1.73;1.63;;;19.00;99.90;;;;;;4235968;27;20189;-80
2022/02/04 06:25:20;;;;;;;1.50;1.23;;;19.00;99.90;;;;;;4234275;27;20270;-80
2022/02/04 06:27:26;;;;;;;1.70;1.60;;;18.90;99.90;;;;;;4234960;27;20277;-80
2022/02/04 06:29:29;;;;;;;1.63;1.52;;;18.90;99.90;;;;;;4233123;27;20307;-80
2022/02/04 06:31:31;;;;;;;1.67;1.33;;;19.00;99.90;;;;;;4232674;27;20221;-80
2022/02/04 06:33:34;;;;;;;1.45;1.33;;;18.90;99.90;;;;;;4230727;27;20614;-80
2022/02/04 06:35:36;;;;;;;2.13;1.65;;;18.90;99.90;;;;;;4234547;27;20731;-80
2022/02/04 06:37:38;;;;;;;1.95;1.42;;;18.90;99.90;;;;;;4234540;27;20832;-80
2022/02/04 06:39:41;;;;;;;2.28;1.67;;;18.90;99.90;;;;;;4232875;27;20279;-80
2022/02/04 06:41:43;;;;;;;3.13;1.45;;;19.00;99.90;;;;;;4235863;27;20248;-80
2022/02/04 06:43:47;;;;;;;1.38;1.27;;;19.00;99.90;;;;;;4226310;27;20933;-80
2022/02/04 06:45:49;;;;;;;1.38;1.27;;;19.00;99.90;;;;;;4205957;28;20240;-80
2022/02/04 06:47:52;;;;;;;1.85;1.58;;;19.00;99.90;;;;;;4214165;28;20259;-80
2022/02/04 06:49:54;;;;;;;2.33;1.40;;;19.00;99.90;;;;;;4212592;28;20226;-80
2022/02/04 06:51:56;;;;;;;1.70;1.48;;;19.00;99.90;;;;;;4213762;28;20670;-80
2022/02/04 06:53:59;;;;;;;1.92;1.73;;;19.00;99.90;;;;;;4214101;28;20222;-80
2022/02/04 06:56:01;;;;;;;1.75;1.60;;;19.00;99.90;;;;;;4215603;28;20256;-81
2022/02/04 06:58:04;;;;;;;1.60;1.42;;;19.10;99.90;;;;;;4213203;28;20574;-80
2022/02/04 07:00:09;;;;;;;1.30;1.20;;;19.10;99.90;;;;;;4211790;28;20219;-80
2022/02/04 07:02:11;;;;;;;1.88;1.38;;;19.10;99.90;;;;;;4207539;28;20222;-80
2022/02/04 07:04:14;;;;;;;1.33;1.23;;;19.10;99.90;;;;;;4210271;28;20219;-80
2022/02/04 07:06:17;;;;;;;1.30;1.20;;;19.10;99.90;;;;;;4213543;28;20260;-80
2022/02/04 07:08:25;;;;;;;1.40;1.20;;;19.10;99.90;;;;;;4218080;28;20631;-80
2022/02/04 07:10:35;;;;;;;1.75;1.15;;;19.10;99.90;;;;;;4211920;28;20213;-80
2022/02/04 07:12:46;;;;;;;1.55;1.40;;;19.10;99.90;;;;;;4216960;28;20245;-80
2022/02/04 07:15:11;;;;;;;1.42;1.20;;;19.10;99.90;;;;;;4220255;28;20234;-80
2022/02/04 07:17:22;;;;;;;2.83;1.60;;;19.20;99.90;;;;;;4203508;28;20641;-80
2022/02/04 07:21:44;;;;;;;3.05;1.30;;;19.20;99.90;;;;;;4214395;28;20206;-80
2022/02/04 07:23:46;;;;;;;1.38;1.23;;;19.20;99.90;;;;;;4213977;28;20240;-80
2022/02/04 07:25:49;;;;;;;3.72;1.23;;;19.20;99.90;;;;;;4211553;28;20219;-80
2022/02/04 07:27:52;;;;;;;1.40;1.30;;;19.20;99.90;;;;;;4212253;28;20279;-80
2022/02/04 07:29:55;;;;;;;1.98;1.48;;;19.20;99.90;;;;;;4214129;28;20214;-80
2022/02/04 07:32:00;;;;;;;2.10;1.30;;;19.20;99.90;;;;;;4211892;28;20640;-80
2022/02/04 07:34:14;;;;;;;1.60;1.00;;;19.20;99.90;;;;;;4212141;28;20632;-80
2022/02/04 07:40:53;;;;;;;1.17;1.08;;;19.20;99.90;;;;;;4212685;28;20593;-80
2022/02/04 07:41:23;;;;;;;1.38;1.02;;;19.20;99.90;;;;;;4210002;28;20620;-80
2022/02/04 07:43:27;;;;;;;1.25;1.15;;;19.30;99.90;;;;;;4211611;28;20219;-80
2022/02/04 07:45:30;;;;;;;3.55;1.05;;;19.30;99.90;;;;;;4227525;27;20242;-80
2022/02/04 07:47:33;;;;;;;1.67;1.20;;;19.30;99.90;;;;;;4229535;28;20270;-80
2022/02/04 07:49:37;;;;;;;2.60;1.05;;;19.20;99.90;;;;;;4229965;28;20258;-80
2022/02/04 07:51:40;;;;;;;1.25;1.15;;;19.30;99.90;;;;;;4226604;28;20271;-80
2022/02/04 07:53:43;;;;;;;2.90;1.20;;;19.30;99.90;;;;;;4228737;28;20710;-80
2022/02/04 07:55:45;;;;;;;5.05;1.13;;;19.30;99.90;;;;;;4227254;28;20229;-80
2022/02/04 07:57:48;;;;;;;2.55;1.10;;;19.30;99.90;;;;;;4227723;28;20218;-80
2022/02/04 07:59:50;;;;;;;2.00;1.40;;;19.30;99.90;;;;;;4224305;28;20225;-80
2022/02/04 08:01:52;;;;;;;2.75;1.08;;;19.30;99.90;;;;;;4232740;27;20647;-80
2022/02/04 08:04:01;;;;;;;4.38;1.10;;;19.30;99.90;;;;;;4234358;27;20213;-79
2022/02/04 08:06:09;;;;;;;1.73;1.20;;;19.40;99.90;;;;;;4227360;27;20209;-79
2022/02/04 08:08:19;;;;;;;2.08;1.10;;;19.40;99.90;;;;;;4227738;27;20268;-79
2022/02/04 08:10:29;;;;;;;1.17;1.08;;;19.40;99.90;;;;;;4231983;27;20221;-79
2022/02/04 08:13:02;;;;;;;3.60;1.33;;;19.40;99.90;;;;;;4227314;28;20254;-80
2022/02/04 08:15:15;;;;;;;2.70;1.30;;;19.60;99.90;;;;;;4228031;27;20723;-77
2022/02/04 08:17:35;;;;;;;2.38;1.23;;;19.50;99.90;;;;;;4229890;27;20611;-79
2022/02/04 08:22:13;;;;;;;2.17;1.20;;;19.70;99.90;;;;;;4225335;27;20685;-79
2022/02/04 08:24:38;;;;;;;1.77;1.10;;;19.70;99.90;;;;;;4226505;27;20206;-79
2022/02/04 08:27:06;;;;;;;1.60;1.10;;;19.80;99.90;;;;;;4225370;27;20226;-76
2022/02/04 08:31:46;;;;;;;5.22;1.20;;;19.80;99.90;;;;;;4209625;28;20260;-75
2022/02/04 08:34:10;;;;;;;2.10;1.10;;;19.80;99.90;;;;;;4229849;27;20717;-75
2022/02/04 08:36:32;;;;;;;1.40;1.20;;;19.80;99.90;;;;;;4220926;27;20693;-75
2022/02/04 08:38:56;;;;;;;2.55;1.42;;;19.90;99.90;;;;;;4223024;27;20214;-76
2022/02/04 08:48:46;;;;;;;1.50;1.40;;;19.90;99.90;;;;;;4160722;28;20192;-78
2022/02/04 08:53:19;;;;;;;3.58;1.55;;;20.00;99.90;;;;;;4219050;27;20744;-78
2022/02/04 08:55:26;;;;;;;2.35;1.00;;;20.00;99.90;;;;;;4226807;27;20267;-78
2022/02/04 08:57:38;;;;;;;4.15;1.33;;;20.00;99.90;;;;;;4224302;27;20212;-77
2022/02/04 08:59:54;;;;;;;2.03;1.05;;;20.10;99.90;;;;;;4223319;27;20237;-77
2022/02/04 09:02:02;;;;;;;3.22;1.40;;;20.20;99.90;;;;;;4241244;27;20217;-78
2022/02/04 09:04:08;;;;;;;6.80;1.10;;;20.20;99.90;;;;;;4240893;27;20729;-78
2022/02/04 09:06:15;;;;;;;2.38;1.15;;;20.20;99.90;;;;;;4241877;27;20273;-78
2022/02/04 09:08:24;;;;;;;1.27;1.17;;;20.30;99.90;;;;;;4239806;27;20266;-78
2022/02/04 09:10:29;;;;;;;1.55;0.93;;;20.30;99.90;;;;;;4239722;27;20273;-79
2022/02/04 09:17:25;;;;;;;1.30;1.20;;;20.40;99.90;;;;;;4239540;27;20205;-76
2022/02/04 09:19:43;;;;;;;1.52;1.40;;;20.40;99.90;;;;;;4244182;27;20646;-77
2022/02/04 09:22:04;;;;;;;1.90;1.10;;;20.50;99.90;;;;;;4242661;27;20267;-79
2022/02/04 09:24:07;;;;;;;1.30;1.00;;;20.50;99.90;;;;;;4245004;27;20224;-81
2022/02/04 09:26:11;;;;;;;2.47;1.23;;;20.60;99.90;;;;;;4240284;27;20242;-77
2022/02/04 09:28:13;;;;;;;3.05;1.20;;;20.50;99.90;;;;;;4240136;27;20258;-77
2022/02/04 09:30:18;;;;;;;2.53;1.35;;;20.50;99.90;;;;;;4241620;27;20341;-77
2022/02/04 09:32:20;;;;;;;2.53;1.23;;;20.60;99.90;;;;;;4242837;27;20282;-76
2022/02/04 09:34:22;;;;;;;3.33;1.10;;;20.60;99.90;;;;;;4242909;27;20229;-80
2022/02/04 09:36:25;;;;;;;1.02;0.93;;;20.60;99.90;;;;;;4238452;27;20221;-82
2022/02/04 09:38:27;;;;;;;1.40;1.00;;;20.70;99.90;;;;;;4244919;27;20220;-82
2022/02/04 09:40:29;;;;;;;2.42;1.10;;;20.70;99.90;;;;;;4242604;27;20239;-80
2022/02/04 09:42:34;;;;;;;5.32;1.02;;;20.70;99.90;;;;;;4239000;27;20213;-78
2022/02/04 09:44:36;;;;;;;3.40;1.20;;;20.70;99.90;;;;;;4239261;27;20640;-78
2022/02/04 09:46:39;;;;;;;3.38;1.20;;;20.60;99.90;;;;;;4242825;27;20636;-78
2022/02/04 09:48:44;;;;;;;1.30;1.20;;;20.70;99.90;;;;;;4242233;27;20262;-77
2022/02/04 09:50:50;;;;;;;1.20;1.10;;;20.70;99.90;;;;;;4238766;27;20217;-77
2022/02/04 10:10:09;;;;;;;1.48;1.13;;;20.90;99.90;;;;;;4244583;27;20205;-78
2022/02/04 10:14:41;;;;;;;1.70;1.00;;;21.00;99.90;;;;;;4242474;27;20221;-78
2022/02/04 10:17:06;;;;;;;5.50;1.05;;;21.00;99.90;;;;;;4239741;27;20209;-79
2022/02/04 10:19:23;;;;;;;1.30;0.98;;;21.00;99.90;;;;;;4240768;27;20610;-78
2022/02/04 10:21:29;;;;;;;3.33;1.10;;;21.00;99.90;;;;;;4240541;27;20217;-78
2022/02/04 10:23:47;;;;;;;1.90;1.05;;;21.00;99.90;;;;;;4241800;27;20224;-77
2022/02/04 10:25:50;;;;;;;2.03;0.82;;;21.10;99.90;;;;;;4234803;27;20257;-77
2022/02/04 10:27:55;;;;;;;2.67;1.20;;;21.10;99.90;;;;;;4242281;27;20258;-77
2022/02/04 10:30:01;;;;;;;1.45;1.10;;;21.10;99.90;;;;;;4238411;27;20263;-80
2022/02/04 10:32:03;;;;;;;1.35;1.10;;;21.00;99.90;;;;;;4243964;27;20657;-80
2022/02/04 10:34:08;;;;;;;3.35;1.08;;;21.10;99.90;;;;;;4239456;27;20341;-78
2022/02/04 10:36:13;;;;;;;1.52;1.10;;;21.10;99.90;;;;;;4242024;27;20273;-79
2022/02/04 10:38:20;;;;;;;6.18;1.25;;;21.00;99.90;;;;;;4239892;27;20274;-76
2022/02/04 10:40:28;;;;;;;2.25;1.30;;;21.10;99.90;;;;;;4238840;27;20213;-78
2022/02/04 10:42:38;;;;;;;5.67;1.50;;;21.20;99.90;;;;;;4235958;27;20801;-79
2022/02/04 10:44:53;;;;;;;4.50;1.50;;;21.00;99.90;;;;;;4240365;27;20237;-79
2022/02/04 10:47:03;;;;;;;1.88;1.25;;;21.10;99.90;;;;;;4237877;27;20281;-79
2022/02/04 10:49:29;;;;;;;3.47;1.08;;;21.20;99.90;;;;;;4240256;27;20208;-79
2022/02/04 10:52:06;;;;;;;1.88;1.20;;;21.20;99.90;;;;;;4239477;27;20217;-78
2022/02/04 10:56:52;;;;;;;7.13;1.70;;;21.30;99.90;;;;;;4239191;27;20213;-72
2022/02/04 10:59:09;;;;;;;2.92;1.52;;;21.30;99.90;;;;;;4238316;27;20297;-72
2022/02/04 11:01:17;;;;;;;3.40;1.00;;;21.30;99.90;;;;;;4239928;27;20217;-71
2022/02/04 11:03:23;;;;;;;3.53;1.35;;;21.30;99.90;;;;;;4241140;27;20208;-71
2022/02/04 11:05:33;;;;;;;1.85;1.00;;;21.30;99.90;;;;;;4239991;27;20213;-71
2022/02/04 11:10:07;;;;;;;1.88;1.17;;;21.30;99.90;;;;;;4220236;27;20297;-78
2022/02/04 11:21:44;;;;;;;3.80;1.50;;;21.30;99.90;;;;;;4242407;27;20217;-78
2022/02/04 11:31:33;;;;;;;3.97;1.30;;;21.30;99.90;;;;;;4240083;27;20201;-79
2022/02/04 11:34:21;;;;;;;8.15;1.30;;;21.40;99.90;;;;;;4242935;27;20213;-79
2022/02/04 11:36:46;;;;;;;3.88;1.08;;;21.40;99.90;;;;;;4241176;27;20309;-78
2022/02/04 11:49:07;;;;;;;7.07;1.80;;;21.30;99.90;;;;;;4241940;27;20206;-78
2022/02/04 11:51:39;;;;;;;3.88;1.48;;;21.30;99.90;;;;;;4241435;28;20262;-78
2022/02/04 11:54:18;;;;;;;4.00;1.20;;;21.30;99.90;;;;;;4242381;28;20229;-78
2022/02/04 11:56:07;;;;;;;2.35;1.23;;;21.30;99.90;;;;;;4241087;28;20213;-77
2022/02/04 11:58:09;;;;;;;4.38;1.58;;;21.30;99.90;;;;;;4242148;28;20608;-78
2022/02/04 12:00:21;;;;;;;2.63;1.23;;;21.30;99.90;;;;;;4240404;28;20309;-78
2022/02/04 12:02:40;;;;;;;3.10;1.33;;;21.30;99.90;;;;;;4241218;28;20217;-78
2022/02/04 12:04:42;;;;;;;4.53;1.35;;;21.30;99.90;;;;;;4241931;28;20217;-78
2022/02/04 12:06:46;;;;;;;1.88;1.50;;;21.30;99.90;;;;;;4241172;28;20220;-78
2022/02/04 12:08:49;;;;;;;2.08;1.40;;;21.30;99.90;;;;;;4241550;28;20265;-77
2022/02/04 12:10:52;;;;;;;1.40;1.20;;;21.30;99.90;;;;;;4241777;28;20205;-78
2022/02/04 12:13:10;;;;;;;1.90;1.33;;;21.30;99.90;;;;;;4241564;28;20209;-77
2022/02/04 12:15:31;;;;;;;1.40;1.10;;;21.30;99.90;;;;;;4242931;28;20240;-77
2022/02/04 12:17:39;;;;;;;2.13;1.20;;;21.30;99.90;;;;;;4240424;28;20838;-77
2022/02/04 12:19:43;;;;;;;3.08;1.50;;;21.30;99.90;;;;;;4242694;28;20612;-78
2022/02/04 12:21:51;;;;;;;1.85;1.50;;;21.30;99.90;;;;;;4241093;28;20217;-77
2022/02/04 12:23:54;;;;;;;2.85;1.50;;;21.30;99.90;;;;;;4240737;28;20212;-77
2022/02/04 12:25:58;;;;;;;1.70;1.27;;;21.30;99.90;;;;;;4241142;28;20265;-77
2022/02/04 12:28:01;;;;;;;2.28;1.20;;;21.30;99.90;;;;;;4242191;28;20254;-78
2022/02/04 12:30:33;;;;;;;2.35;1.40;;;21.30;99.90;;;;;;4242754;28;20225;-78
2022/02/04 12:32:39;;;;;;;1.50;1.30;;;21.30;99.90;;;;;;4242512;28;20243;-77
2022/02/04 12:34:47;;;;;;;3.40;1.40;;;21.30;99.90;;;;;;4242647;28;20233;-77
2022/02/04 12:36:54;;;;;;;3.90;1.60;;;21.30;99.90;;;;;;4242432;28;20229;-78
2022/02/04 12:38:58;;;;;;;1.67;1.48;;;21.30;99.90;;;;;;4242561;28;20597;-77
2022/02/04 12:41:01;;;;;;;2.10;1.27;;;21.20;99.90;;;;;;4241506;28;20216;-78
2022/02/04 12:43:03;;;;;;;2.92;1.65;;;21.30;99.90;;;;;;4242704;28;20214;-78
2022/02/04 12:45:13;;;;;;;2.78;1.50;;;21.30;99.90;;;;;;4217443;28;20234;-78
2022/02/04 12:47:17;;;;;;;2.85;1.40;;;21.30;99.90;;;;;;4209820;28;20199;-78
2022/02/04 12:49:20;;;;;;;1.58;1.42;;;21.30;99.90;;;;;;4211707;28;20279;-78
2022/02/04 12:51:40;;;;;;;2.15;1.70;;;21.30;99.90;;;;;;4205802;28;20222;-78
2022/02/04 12:53:48;;;;;;;2.08;1.50;;;21.30;99.90;;;;;;4207204;28;20280;-78
2022/02/04 12:56:04;;;;;;;4.05;2.25;;;21.30;99.90;;;;;;4208172;28;20302;-75
2022/02/04 12:58:15;;;;;;;14.65;2.08;;;21.10;99.90;;;;;;4206683;28;20219;-77
2022/02/04 13:00:37;;;;;;;3.65;2.20;;;21.00;99.90;;;;;;4210338;28;20559;-75
2022/02/04 13:03:03;;;;;;;7.70;2.13;;;21.10;99.90;;;;;;4210436;28;20262;-77
2022/02/04 13:09:52;;;;;;;3.05;1.52;;;21.30;99.90;;;;;;4213750;28;20219;-77
2022/02/04 13:12:08;;;;;;;4.25;1.75;;;21.40;99.90;;;;;;4213238;28;20255;-76
2022/02/04 13:14:12;;;;;;;3.25;1.63;;;21.40;99.90;;;;;;4208494;28;20265;-77
2022/02/04 13:16:15;;;;;;;2.70;1.65;;;21.40;99.90;;;;;;4211495;28;20706;-76
2022/02/04 13:18:18;;;;;;;2.72;1.42;;;21.40;99.90;;;;;;4213764;28;20271;-76
2022/02/04 13:20:22;;;;;;;4.70;1.58;;;21.40;99.90;;;;;;4208668;28;20226;-77
2022/02/04 13:22:24;;;;;;;3.38;1.45;;;21.50;99.90;;;;;;4214268;28;20606;-77
2022/02/04 13:24:27;;;;;;;3.70;1.80;;;21.50;99.90;;;;;;4209481;28;20226;-78
2022/02/04 13:26:31;;;;;;;3.47;1.63;;;21.50;99.90;;;;;;4216304;28;20218;-76
2022/02/04 13:28:35;;;;;;;2.80;1.55;;;21.60;99.90;;;;;;4214279;28;20266;-77
2022/02/04 13:30:40;;;;;;;6.38;1.90;;;21.60;99.90;;;;;;4211024;28;20245;-78
2022/02/04 13:32:44;;;;;;;7.97;1.70;;;21.60;99.90;;;;;;4215916;28;20647;-79
2022/02/04 13:34:46;;;;;;;3.03;1.70;;;21.60;99.90;;;;;;4209151;28;20222;-78
2022/02/04 13:36:53;;;;;;;3.47;1.70;;;21.60;99.90;;;;;;4212805;28;20243;-79
2022/02/04 13:39:06;;;;;;;3.38;1.60;;;21.60;99.90;;;;;;4214205;28;20300;-71
2022/02/04 13:41:17;;;;;;;3.40;1.58;;;21.70;99.90;;;;;;4212925;28;20214;-71
2022/02/04 13:43:31;;;;;;;4.38;1.63;;;21.60;99.90;;;;;;4212580;28;21634;-73
2022/02/04 13:45:40;;;;;;;3.58;1.67;;;21.60;99.90;;;;;;4212650;28;20226;-72
2022/02/04 13:47:48;;;;;;;6.07;1.90;;;21.70;99.90;;;;;;4210872;28;20217;-71
2022/02/04 13:52:16;;;;;;;2.47;1.65;;;21.70;99.90;;;;;;4188019;28;20599;-71
2022/02/04 13:54:36;;;;;;;4.07;1.30;;;21.70;99.90;;;;;;4214713;28;20821;-70
2022/02/04 13:56:47;;;;;;;2.20;1.70;;;21.60;99.90;;;;;;4208336;28;20246;-71
2022/02/04 13:58:54;;;;;;;3.55;1.80;;;21.70;99.90;;;;;;4210123;28;20214;-72
2022/02/04 14:01:05;;;;;;;2.35;1.35;;;21.60;99.90;;;;;;4208502;28;20222;-73
2022/02/04 14:03:16;;;;;;;3.42;1.60;;;21.60;99.90;;;;;;4208397;28;20214;-72
2022/02/04 14:05:27;;;;;;;2.83;1.73;;;21.70;99.90;;;;;;4210083;28;20268;-71
2022/02/04 14:07:39;;;;;;;5.82;1.80;;;21.60;99.90;;;;;;4203348;28;20221;-72
2022/02/04 14:09:50;;;;;;;3.70;1.92;;;21.70;99.90;;;;;;4209760;28;20214;-71
2022/02/04 14:11:52;;;;;;;3.58;1.50;;;21.70;99.90;;;;;;4210125;28;20287;-72
2022/02/04 14:13:57;;;;;;;2.30;1.60;;;21.80;99.90;;;;;;4214559;28;20214;-71
2022/02/04 14:16:01;;;;;;;2.25;1.27;;;21.70;99.90;;;;;;4214086;28;21041;-71
2022/02/04 14:18:07;;;;;;;4.85;1.60;;;21.70;99.90;;;;;;4211505;28;20647;-72
2022/02/04 14:20:11;;;;;;;2.38;1.48;;;21.80;99.90;;;;;;4213884;28;20222;-72
2022/02/04 14:22:14;;;;;;;3.20;1.70;;;21.80;99.90;;;;;;4206681;28;20214;-72
2022/02/04 14:24:16;;;;;;;2.15;1.60;;;21.80;99.90;;;;;;4212639;28;21031;-71
2022/02/04 14:26:24;;;;;;;2.25;1.40;;;21.80;99.90;;;;;;4209226;28;20272;-73
2022/02/04 14:28:37;;;;;;;3.00;1.73;;;21.80;99.90;;;;;;4209660;28;20226;-72